sensor_id;sensor_type;location;lat;lon;timestamp;P1;durP1;ratioP1;P2;durP2;ratioP2
7074;SDS011;3578;51.568;6.932;2022-11-15T00:00:03;14.00;;;11.27;;
7074;SDS011;3578;51.568;6.932;2022-11-15T00:02:31;12.57;;;11.27;;
7074;SDS011;3578;51.568;6.932;2022-11-15T00:04:59;14.30;;;11.83;;
7074;SDS011;3578;51.568;6.932;2022-11-15T00:07:26;13.93;;;12.17;;
7074;SDS011;3578;51.568;6.932;2022-11-15T00:09:53;13.97;;;12.47;;
7074;SDS011;3578;51.568;6.932;2022-11-15T00:12:19;12.97;;;11.67;;
7074;SDS011;3578;51.568;6.932;2022-11-15T00:14:48;15.00;;;12.00;;
7074;SDS011;3578;51.568;6.932;2022-11-15T00:17:16;13.10;;;11.80;;
7074;SDS011;3578;51.568;6.932;2022-11-15T00:19:43;13.10;;;11.47;;
7074;SDS011;3578;51.568;6.932;2022-11-15T00:22:10;14.93;;;11.93;;
7074;SDS011;3578;51.568;6.932;2022-11-15T00:24:37;14.50;;;12.00;;
7074;SDS011;3578;51.568;6.932;2022-11-15T00:27:04;12.10;;;10.90;;
7074;SDS011;3578;51.568;6.932;2022-11-15T00:29:31;12.30;;;10.50;;
7074;SDS011;3578;51.568;6.932;2022-11-15T00:32:00;13.97;;;12.27;;
7074;SDS011;3578;51.568;6.932;2022-11-15T00:34:27;12.87;;;11.13;;
7074;SDS011;3578;51.568;6.932;2022-11-15T00:36:54;12.40;;;11.17;;
7074;SDS011;3578;51.568;6.932;2022-11-15T00:39:21;13.70;;;11.30;;
7074;SDS011;3578;51.568;6.932;2022-11-15T00:41:48;13.20;;;12.00;;
7074;SDS011;3578;51.568;6.932;2022-11-15T00:44:15;15.60;;;12.30;;
7074;SDS011;3578;51.568;6.932;2022-11-15T00:46:42;11.17;;;10.17;;
7074;SDS011;3578;51.568;6.932;2022-11-15T00:49:10;12.10;;;10.90;;
7074;SDS011;3578;51.568;6.932;2022-11-15T00:51:37;11.97;;;10.30;;
7074;SDS011;3578;51.568;6.932;2022-11-15T00:54:04;12.00;;;10.67;;
7074;SDS011;3578;51.568;6.932;2022-11-15T00:56:31;14.23;;;10.90;;
7074;SDS011;3578;51.568;6.932;2022-11-15T00:58:58;13.77;;;11.73;;
7074;SDS011;3578;51.568;6.932;2022-11-15T01:01:25;11.90;;;10.70;;
7074;SDS011;3578;51.568;6.932;2022-11-15T01:03:52;11.80;;;10.60;;
7074;SDS011;3578;51.568;6.932;2022-11-15T01:06:20;11.20;;;10.03;;
7074;SDS011;3578;51.568;6.932;2022-11-15T01:08:47;11.00;;;9.97;;
7074;SDS011;3578;51.568;6.932;2022-11-15T01:11:14;12.90;;;11.53;;
7074;SDS011;3578;51.568;6.932;2022-11-15T01:13:41;11.20;;;10.00;;
7074;SDS011;3578;51.568;6.932;2022-11-15T01:16:09;12.93;;;10.77;;
7074;SDS011;3578;51.568;6.932;2022-11-15T01:18:39;11.73;;;10.53;;
7074;SDS011;3578;51.568;6.932;2022-11-15T01:21:08;11.77;;;10.57;;
7074;SDS011;3578;51.568;6.932;2022-11-15T01:23:38;11.40;;;10.20;;
7074;SDS011;3578;51.568;6.932;2022-11-15T01:26:06;12.23;;;9.87;;
7074;SDS011;3578;51.568;6.932;2022-11-15T01:28:36;11.47;;;9.80;;
7074;SDS011;3578;51.568;6.932;2022-11-15T01:31:08;19.53;;;10.30;;
7074;SDS011;3578;51.568;6.932;2022-11-15T01:33:39;11.87;;;9.57;;
7074;SDS011;3578;51.568;6.932;2022-11-15T01:36:08;10.50;;;9.47;;
7074;SDS011;3578;51.568;6.932;2022-11-15T01:38:40;12.60;;;8.47;;
7074;SDS011;3578;51.568;6.932;2022-11-15T01:41:12;14.07;;;8.60;;
7074;SDS011;3578;51.568;6.932;2022-11-15T01:43:43;10.20;;;9.20;;
7074;SDS011;3578;51.568;6.932;2022-11-15T01:46:15;10.97;;;8.40;;
7074;SDS011;3578;51.568;6.932;2022-11-15T01:48:53;10.00;;;8.73;;
7074;SDS011;3578;51.568;6.932;2022-11-15T01:51:24;9.30;;;8.50;;
7074;SDS011;3578;51.568;6.932;2022-11-15T01:53:58;10.33;;;8.50;;
7074;SDS011;3578;51.568;6.932;2022-11-15T01:56:32;10.40;;;8.83;;
7074;SDS011;3578;51.568;6.932;2022-11-15T01:59:12;12.40;;;8.23;;
7074;SDS011;3578;51.568;6.932;2022-11-15T02:01:39;8.63;;;7.73;;
7074;SDS011;3578;51.568;6.932;2022-11-15T02:04:09;8.90;;;8.00;;
7074;SDS011;3578;51.568;6.932;2022-11-15T02:06:42;9.77;;;8.77;;
7074;SDS011;3578;51.568;6.932;2022-11-15T02:09:11;8.80;;;7.60;;
7074;SDS011;3578;51.568;6.932;2022-11-15T02:11:38;10.57;;;8.17;;
7074;SDS011;3578;51.568;6.932;2022-11-15T02:14:06;11.07;;;7.83;;
7074;SDS011;3578;51.568;6.932;2022-11-15T02:16:35;8.30;;;7.50;;
7074;SDS011;3578;51.568;6.932;2022-11-15T02:19:19;8.13;;;7.40;;
7074;SDS011;3578;51.568;6.932;2022-11-15T02:22:06;9.37;;;7.97;;
7074;SDS011;3578;51.568;6.932;2022-11-15T02:24:57;9.77;;;7.50;;
7074;SDS011;3578;51.568;6.932;2022-11-15T02:27:42;9.10;;;8.13;;
7074;SDS011;3578;51.568;6.932;2022-11-15T02:30:55;12.40;;;7.60;;
7074;SDS011;3578;51.568;6.932;2022-11-15T02:33:33;7.57;;;6.90;;
7074;SDS011;3578;51.568;6.932;2022-11-15T02:36:09;8.33;;;7.57;;
7074;SDS011;3578;51.568;6.932;2022-11-15T02:38:43;8.63;;;7.83;;
7074;SDS011;3578;51.568;6.932;2022-11-15T02:41:20;7.20;;;6.50;;
7074;SDS011;3578;51.568;6.932;2022-11-15T02:43:55;8.53;;;7.00;;
7074;SDS011;3578;51.568;6.932;2022-11-15T02:46:29;8.13;;;7.20;;
7074;SDS011;3578;51.568;6.932;2022-11-15T02:49:19;8.50;;;6.83;;
7074;SDS011;3578;51.568;6.932;2022-11-15T02:51:47;7.90;;;6.47;;
7074;SDS011;3578;51.568;6.932;2022-11-15T02:54:17;11.20;;;6.93;;
7074;SDS011;3578;51.568;6.932;2022-11-15T02:56:48;8.00;;;6.50;;
7074;SDS011;3578;51.568;6.932;2022-11-15T02:59:20;7.10;;;6.50;;
7074;SDS011;3578;51.568;6.932;2022-11-15T03:02:41;6.20;;;5.60;;
7074;SDS011;3578;51.568;6.932;2022-11-15T03:05:46;7.03;;;5.77;;
7074;SDS011;3578;51.568;6.932;2022-11-15T03:08:21;8.70;;;7.73;;
7074;SDS011;3578;51.568;6.932;2022-11-15T03:11:00;7.80;;;6.93;;
7074;SDS011;3578;51.568;6.932;2022-11-15T03:13:36;8.40;;;6.37;;
7074;SDS011;3578;51.568;6.932;2022-11-15T03:16:10;10.63;;;6.60;;
7074;SDS011;3578;51.568;6.932;2022-11-15T03:18:47;7.27;;;6.57;;
7074;SDS011;3578;51.568;6.932;2022-11-15T03:21:20;8.60;;;6.50;;
7074;SDS011;3578;51.568;6.932;2022-11-15T03:23:49;8.70;;;6.90;;
7074;SDS011;3578;51.568;6.932;2022-11-15T03:26:19;10.83;;;7.40;;
7074;SDS011;3578;51.568;6.932;2022-11-15T03:28:50;8.83;;;7.33;;
7074;SDS011;3578;51.568;6.932;2022-11-15T03:31:21;7.83;;;6.80;;
7074;SDS011;3578;51.568;6.932;2022-11-15T03:34:13;6.90;;;6.30;;
7074;SDS011;3578;51.568;6.932;2022-11-15T03:36:52;8.83;;;7.13;;
7074;SDS011;3578;51.568;6.932;2022-11-15T03:39:20;8.00;;;6.53;;
7074;SDS011;3578;51.568;6.932;2022-11-15T03:41:50;8.17;;;7.10;;
7074;SDS011;3578;51.568;6.932;2022-11-15T03:44:31;9.23;;;6.77;;
7074;SDS011;3578;51.568;6.932;2022-11-15T03:47:06;8.43;;;6.80;;
7074;SDS011;3578;51.568;6.932;2022-11-15T03:49:40;7.40;;;6.67;;
7074;SDS011;3578;51.568;6.932;2022-11-15T03:52:10;8.30;;;6.60;;
7074;SDS011;3578;51.568;6.932;2022-11-15T03:54:46;9.90;;;6.83;;
7074;SDS011;3578;51.568;6.932;2022-11-15T03:57:15;9.37;;;7.10;;
7074;SDS011;3578;51.568;6.932;2022-11-15T03:59:44;11.23;;;7.77;;
7074;SDS011;3578;51.568;6.932;2022-11-15T04:02:11;8.53;;;7.07;;
7074;SDS011;3578;51.568;6.932;2022-11-15T04:04:40;7.77;;;7.07;;
7074;SDS011;3578;51.568;6.932;2022-11-15T04:07:07;7.63;;;6.83;;
7074;SDS011;3578;51.568;6.932;2022-11-15T04:09:34;7.50;;;6.70;;
7074;SDS011;3578;51.568;6.932;2022-11-15T04:12:22;7.03;;;6.50;;
7074;SDS011;3578;51.568;6.932;2022-11-15T04:14:56;9.17;;;6.20;;
7074;SDS011;3578;51.568;6.932;2022-11-15T04:17:34;6.77;;;6.17;;
7074;SDS011;3578;51.568;6.932;2022-11-15T04:20:06;6.23;;;5.77;;
7074;SDS011;3578;51.568;6.932;2022-11-15T04:22:55;6.00;;;5.50;;
7074;SDS011;3578;51.568;6.932;2022-11-15T04:25:41;9.83;;;5.83;;
7074;SDS011;3578;51.568;6.932;2022-11-15T04:28:09;6.03;;;5.63;;
7074;SDS011;3578;51.568;6.932;2022-11-15T04:30:37;7.07;;;5.77;;
7074;SDS011;3578;51.568;6.932;2022-11-15T04:33:04;6.73;;;5.50;;
7074;SDS011;3578;51.568;6.932;2022-11-15T04:35:32;6.90;;;5.23;;
7074;SDS011;3578;51.568;6.932;2022-11-15T04:38:00;5.87;;;5.37;;
7074;SDS011;3578;51.568;6.932;2022-11-15T04:40:27;6.33;;;5.80;;
7074;SDS011;3578;51.568;6.932;2022-11-15T04:42:54;6.30;;;5.70;;
7074;SDS011;3578;51.568;6.932;2022-11-15T04:45:22;6.90;;;5.47;;
7074;SDS011;3578;51.568;6.932;2022-11-15T04:47:49;5.37;;;4.97;;
7074;SDS011;3578;51.568;6.932;2022-11-15T04:50:16;10.40;;;6.27;;
7074;SDS011;3578;51.568;6.932;2022-11-15T04:52:50;6.43;;;5.70;;
7074;SDS011;3578;51.568;6.932;2022-11-15T04:55:19;7.27;;;5.80;;
7074;SDS011;3578;51.568;6.932;2022-11-15T04:57:46;7.20;;;6.00;;
7074;SDS011;3578;51.568;6.932;2022-11-15T05:00:14;5.93;;;5.43;;
7074;SDS011;3578;51.568;6.932;2022-11-15T05:02:42;6.13;;;5.63;;
7074;SDS011;3578;51.568;6.932;2022-11-15T05:05:27;8.60;;;6.50;;
7074;SDS011;3578;51.568;6.932;2022-11-15T05:07:55;7.90;;;5.63;;
7074;SDS011;3578;51.568;6.932;2022-11-15T05:10:22;7.90;;;6.30;;
7074;SDS011;3578;51.568;6.932;2022-11-15T05:12:49;5.93;;;5.30;;
7074;SDS011;3578;51.568;6.932;2022-11-15T05:15:16;6.40;;;5.17;;
7074;SDS011;3578;51.568;6.932;2022-11-15T05:17:43;6.23;;;5.63;;
7074;SDS011;3578;51.568;6.932;2022-11-15T05:20:10;6.53;;;5.57;;
7074;SDS011;3578;51.568;6.932;2022-11-15T05:22:38;6.20;;;5.60;;
7074;SDS011;3578;51.568;6.932;2022-11-15T05:25:07;5.90;;;5.30;;
7074;SDS011;3578;51.568;6.932;2022-11-15T05:27:34;5.40;;;4.90;;
7074;SDS011;3578;51.568;6.932;2022-11-15T05:30:01;5.63;;;5.03;;
7074;SDS011;3578;51.568;6.932;2022-11-15T05:32:28;5.13;;;4.63;;
7074;SDS011;3578;51.568;6.932;2022-11-15T05:34:55;5.60;;;5.10;;
7074;SDS011;3578;51.568;6.932;2022-11-15T05:37:22;5.07;;;4.73;;
7074;SDS011;3578;51.568;6.932;2022-11-15T05:39:49;5.67;;;4.67;;
7074;SDS011;3578;51.568;6.932;2022-11-15T05:42:17;5.30;;;4.90;;
7074;SDS011;3578;51.568;6.932;2022-11-15T05:44:46;5.37;;;4.87;;
7074;SDS011;3578;51.568;6.932;2022-11-15T05:47:16;5.43;;;5.00;;
7074;SDS011;3578;51.568;6.932;2022-11-15T05:49:48;5.43;;;5.03;;
7074;SDS011;3578;51.568;6.932;2022-11-15T05:52:18;6.23;;;5.63;;
7074;SDS011;3578;51.568;6.932;2022-11-15T05:54:49;8.60;;;6.07;;
7074;SDS011;3578;51.568;6.932;2022-11-15T05:57:19;5.60;;;5.20;;
7074;SDS011;3578;51.568;6.932;2022-11-15T05:59:46;6.33;;;5.83;;
7074;SDS011;3578;51.568;6.932;2022-11-15T06:02:13;6.77;;;6.17;;
7074;SDS011;3578;51.568;6.932;2022-11-15T06:04:40;6.93;;;6.33;;
7074;SDS011;3578;51.568;6.932;2022-11-15T06:07:07;6.43;;;5.93;;
7074;SDS011;3578;51.568;6.932;2022-11-15T06:09:34;6.40;;;5.90;;
7074;SDS011;3578;51.568;6.932;2022-11-15T06:12:01;7.00;;;6.40;;
7074;SDS011;3578;51.568;6.932;2022-11-15T06:14:29;6.63;;;6.13;;
7074;SDS011;3578;51.568;6.932;2022-11-15T06:16:56;7.10;;;6.40;;
7074;SDS011;3578;51.568;6.932;2022-11-15T06:19:23;7.17;;;6.57;;
7074;SDS011;3578;51.568;6.932;2022-11-15T06:21:50;7.33;;;6.73;;
7074;SDS011;3578;51.568;6.932;2022-11-15T06:24:17;6.80;;;6.27;;
7074;SDS011;3578;51.568;6.932;2022-11-15T06:26:44;9.20;;;6.73;;
7074;SDS011;3578;51.568;6.932;2022-11-15T06:29:11;8.97;;;6.43;;
7074;SDS011;3578;51.568;6.932;2022-11-15T06:31:39;8.50;;;7.23;;
7074;SDS011;3578;51.568;6.932;2022-11-15T06:34:06;7.17;;;6.47;;
7074;SDS011;3578;51.568;6.932;2022-11-15T06:36:33;7.27;;;6.10;;
7074;SDS011;3578;51.568;6.932;2022-11-15T06:39:01;7.93;;;7.20;;
7074;SDS011;3578;51.568;6.932;2022-11-15T06:41:28;7.60;;;6.90;;
7074;SDS011;3578;51.568;6.932;2022-11-15T06:43:56;7.50;;;6.80;;
7074;SDS011;3578;51.568;6.932;2022-11-15T06:46:23;6.97;;;6.43;;
7074;SDS011;3578;51.568;6.932;2022-11-15T06:48:51;7.33;;;6.73;;
7074;SDS011;3578;51.568;6.932;2022-11-15T06:51:19;7.23;;;6.67;;
7074;SDS011;3578;51.568;6.932;2022-11-15T06:53:46;7.93;;;6.23;;
7074;SDS011;3578;51.568;6.932;2022-11-15T06:56:13;7.07;;;6.10;;
7074;SDS011;3578;51.568;6.932;2022-11-15T06:58:40;7.10;;;6.60;;
7074;SDS011;3578;51.568;6.932;2022-11-15T07:01:07;6.67;;;6.17;;
7074;SDS011;3578;51.568;6.932;2022-11-15T07:03:36;6.27;;;5.77;;
7074;SDS011;3578;51.568;6.932;2022-11-15T07:06:07;6.53;;;5.97;;
7074;SDS011;3578;51.568;6.932;2022-11-15T07:08:36;10.30;;;6.37;;
7074;SDS011;3578;51.568;6.932;2022-11-15T07:11:04;5.83;;;5.23;;
7074;SDS011;3578;51.568;6.932;2022-11-15T07:13:33;6.60;;;6.00;;
7074;SDS011;3578;51.568;6.932;2022-11-15T07:16:02;5.80;;;5.40;;
7074;SDS011;3578;51.568;6.932;2022-11-15T07:18:33;7.60;;;6.13;;
7074;SDS011;3578;51.568;6.932;2022-11-15T07:21:01;5.80;;;5.30;;
7074;SDS011;3578;51.568;6.932;2022-11-15T07:23:30;4.93;;;4.53;;
7074;SDS011;3578;51.568;6.932;2022-11-15T07:25:58;5.13;;;4.73;;
7074;SDS011;3578;51.568;6.932;2022-11-15T07:28:25;4.63;;;4.43;;
7074;SDS011;3578;51.568;6.932;2022-11-15T07:30:53;4.70;;;4.43;;
7074;SDS011;3578;51.568;6.932;2022-11-15T07:33:20;4.97;;;4.67;;
7074;SDS011;3578;51.568;6.932;2022-11-15T07:35:47;5.00;;;4.70;;
7074;SDS011;3578;51.568;6.932;2022-11-15T07:38:15;5.33;;;4.83;;
7074;SDS011;3578;51.568;6.932;2022-11-15T07:40:46;7.43;;;4.10;;
7074;SDS011;3578;51.568;6.932;2022-11-15T07:43:13;4.40;;;4.00;;
7074;SDS011;3578;51.568;6.932;2022-11-15T07:45:41;4.50;;;4.20;;
7074;SDS011;3578;51.568;6.932;2022-11-15T07:48:09;4.03;;;3.73;;
7074;SDS011;3578;51.568;6.932;2022-11-15T07:50:36;3.70;;;3.50;;
7074;SDS011;3578;51.568;6.932;2022-11-15T07:53:07;3.43;;;3.23;;
7074;SDS011;3578;51.568;6.932;2022-11-15T07:55:35;3.53;;;3.27;;
7074;SDS011;3578;51.568;6.932;2022-11-15T07:58:04;3.53;;;3.30;;
7074;SDS011;3578;51.568;6.932;2022-11-15T08:00:33;7.53;;;3.97;;
7074;SDS011;3578;51.568;6.932;2022-11-15T08:03:01;3.43;;;3.23;;
7074;SDS011;3578;51.568;6.932;2022-11-15T08:05:30;2.80;;;2.60;;
7074;SDS011;3578;51.568;6.932;2022-11-15T08:07:57;5.10;;;3.20;;
7074;SDS011;3578;51.568;6.932;2022-11-15T08:10:24;3.03;;;2.87;;
7074;SDS011;3578;51.568;6.932;2022-11-15T08:12:58;2.97;;;2.77;;
7074;SDS011;3578;51.568;6.932;2022-11-15T08:15:27;2.87;;;2.77;;
7074;SDS011;3578;51.568;6.932;2022-11-15T08:17:55;3.07;;;2.87;;
7074;SDS011;3578;51.568;6.932;2022-11-15T08:20:23;2.60;;;2.50;;
7074;SDS011;3578;51.568;6.932;2022-11-15T08:22:53;4.23;;;2.40;;
7074;SDS011;3578;51.568;6.932;2022-11-15T08:25:20;3.33;;;2.63;;
7074;SDS011;3578;51.568;6.932;2022-11-15T08:27:47;4.00;;;2.60;;
7074;SDS011;3578;51.568;6.932;2022-11-15T08:30:17;3.63;;;2.10;;
7074;SDS011;3578;51.568;6.932;2022-11-15T08:32:45;3.23;;;2.23;;
7074;SDS011;3578;51.568;6.932;2022-11-15T08:35:12;2.53;;;2.33;;
7074;SDS011;3578;51.568;6.932;2022-11-15T08:37:39;2.20;;;1.90;;
7074;SDS011;3578;51.568;6.932;2022-11-15T08:40:06;2.23;;;2.13;;
7074;SDS011;3578;51.568;6.932;2022-11-15T08:42:34;2.60;;;2.40;;
7074;SDS011;3578;51.568;6.932;2022-11-15T08:45:02;3.13;;;1.97;;
7074;SDS011;3578;51.568;6.932;2022-11-15T08:47:29;2.27;;;2.17;;
7074;SDS011;3578;51.568;6.932;2022-11-15T08:49:58;2.17;;;2.00;;
7074;SDS011;3578;51.568;6.932;2022-11-15T08:52:25;2.67;;;2.47;;
7074;SDS011;3578;51.568;6.932;2022-11-15T08:54:52;5.17;;;2.17;;
7074;SDS011;3578;51.568;6.932;2022-11-15T08:57:19;2.73;;;2.10;;
7074;SDS011;3578;51.568;6.932;2022-11-15T08:59:46;2.43;;;2.30;;
7074;SDS011;3578;51.568;6.932;2022-11-15T09:02:13;2.30;;;2.00;;
7074;SDS011;3578;51.568;6.932;2022-11-15T09:04:41;2.20;;;1.80;;
7074;SDS011;3578;51.568;6.932;2022-11-15T09:07:10;2.23;;;2.13;;
7074;SDS011;3578;51.568;6.932;2022-11-15T09:09:39;2.77;;;2.20;;
7074;SDS011;3578;51.568;6.932;2022-11-15T09:12:06;2.43;;;2.23;;
7074;SDS011;3578;51.568;6.932;2022-11-15T09:14:34;4.40;;;2.40;;
7074;SDS011;3578;51.568;6.932;2022-11-15T09:17:01;2.20;;;2.10;;
7074;SDS011;3578;51.568;6.932;2022-11-15T09:19:28;2.43;;;2.10;;
7074;SDS011;3578;51.568;6.932;2022-11-15T09:21:55;2.60;;;2.40;;
7074;SDS011;3578;51.568;6.932;2022-11-15T09:24:23;1.90;;;1.80;;
7074;SDS011;3578;51.568;6.932;2022-11-15T09:26:50;4.33;;;2.20;;
7074;SDS011;3578;51.568;6.932;2022-11-15T09:29:17;2.37;;;2.07;;
7074;SDS011;3578;51.568;6.932;2022-11-15T09:31:44;2.40;;;2.27;;
7074;SDS011;3578;51.568;6.932;2022-11-15T09:34:11;2.33;;;2.23;;
7074;SDS011;3578;51.568;6.932;2022-11-15T09:36:38;3.70;;;2.10;;
7074;SDS011;3578;51.568;6.932;2022-11-15T09:39:05;1.97;;;1.87;;
7074;SDS011;3578;51.568;6.932;2022-11-15T09:41:41;2.10;;;1.90;;
7074;SDS011;3578;51.568;6.932;2022-11-15T09:47:39;3.23;;;2.00;;
7074;SDS011;3578;51.568;6.932;2022-11-15T09:50:44;4.40;;;2.87;;
7074;SDS011;3578;51.568;6.932;2022-11-15T09:53:17;2.30;;;2.10;;
7074;SDS011;3578;51.568;6.932;2022-11-15T09:55:57;3.20;;;2.30;;
7074;SDS011;3578;51.568;6.932;2022-11-15T09:58:33;2.63;;;2.40;;
7074;SDS011;3578;51.568;6.932;2022-11-15T10:01:06;2.50;;;2.30;;
7074;SDS011;3578;51.568;6.932;2022-11-15T10:03:43;3.03;;;2.80;;
7074;SDS011;3578;51.568;6.932;2022-11-15T10:06:19;3.20;;;2.40;;
7074;SDS011;3578;51.568;6.932;2022-11-15T10:08:51;2.60;;;2.50;;
7074;SDS011;3578;51.568;6.932;2022-11-15T10:11:25;3.40;;;2.17;;
7074;SDS011;3578;51.568;6.932;2022-11-15T10:13:58;2.93;;;2.17;;
7074;SDS011;3578;51.568;6.932;2022-11-15T10:19:34;2.30;;;2.20;;
7074;SDS011;3578;51.568;6.932;2022-11-15T10:25:00;2.00;;;1.90;;
7074;SDS011;3578;51.568;6.932;2022-11-15T10:27:43;2.20;;;2.10;;
7074;SDS011;3578;51.568;6.932;2022-11-15T10:30:18;2.00;;;1.90;;
7074;SDS011;3578;51.568;6.932;2022-11-15T10:32:47;4.13;;;1.97;;
7074;SDS011;3578;51.568;6.932;2022-11-15T10:35:16;2.00;;;1.90;;
7074;SDS011;3578;51.568;6.932;2022-11-15T10:37:46;4.57;;;1.67;;
7074;SDS011;3578;51.568;6.932;2022-11-15T10:40:16;3.50;;;1.57;;
7074;SDS011;3578;51.568;6.932;2022-11-15T10:42:46;3.93;;;1.70;;
7074;SDS011;3578;51.568;6.932;2022-11-15T10:45:24;1.70;;;1.60;;
7074;SDS011;3578;51.568;6.932;2022-11-15T10:47:59;2.00;;;1.90;;
7074;SDS011;3578;51.568;6.932;2022-11-15T10:50:50;3.60;;;2.00;;
7074;SDS011;3578;51.568;6.932;2022-11-15T10:53:23;1.70;;;1.60;;
7074;SDS011;3578;51.568;6.932;2022-11-15T10:55:57;2.20;;;2.10;;
7074;SDS011;3578;51.568;6.932;2022-11-15T10:58:31;3.00;;;1.80;;
7074;SDS011;3578;51.568;6.932;2022-11-15T11:01:10;2.40;;;2.20;;
7074;SDS011;3578;51.568;6.932;2022-11-15T11:03:41;4.00;;;1.70;;
7074;SDS011;3578;51.568;6.932;2022-11-15T11:06:11;1.70;;;1.60;;
7074;SDS011;3578;51.568;6.932;2022-11-15T11:08:40;2.30;;;2.20;;
7074;SDS011;3578;51.568;6.932;2022-11-15T11:11:19;2.40;;;1.80;;
7074;SDS011;3578;51.568;6.932;2022-11-15T11:13:46;1.73;;;1.63;;
7074;SDS011;3578;51.568;6.932;2022-11-15T11:16:21;2.23;;;1.53;;
7074;SDS011;3578;51.568;6.932;2022-11-15T11:19:11;1.90;;;1.80;;
7074;SDS011;3578;51.568;6.932;2022-11-15T11:21:58;3.03;;;1.70;;
7074;SDS011;3578;51.568;6.932;2022-11-15T11:24:36;2.03;;;1.70;;
7074;SDS011;3578;51.568;6.932;2022-11-15T11:27:17;1.60;;;1.50;;
7074;SDS011;3578;51.568;6.932;2022-11-15T11:30:00;1.87;;;1.57;;
7074;SDS011;3578;51.568;6.932;2022-11-15T11:32:39;2.50;;;1.30;;
7074;SDS011;3578;51.568;6.932;2022-11-15T11:35:23;2.23;;;1.50;;
7074;SDS011;3578;51.568;6.932;2022-11-15T11:37:58;1.33;;;1.13;;
7074;SDS011;3578;51.568;6.932;2022-11-15T11:40:51;2.20;;;1.63;;
7074;SDS011;3578;51.568;6.932;2022-11-15T11:43:27;1.40;;;1.30;;
7074;SDS011;3578;51.568;6.932;2022-11-15T11:46:05;1.13;;;1.10;;
7074;SDS011;3578;51.568;6.932;2022-11-15T11:48:55;2.00;;;1.43;;
7074;SDS011;3578;51.568;6.932;2022-11-15T11:51:32;1.40;;;1.33;;
7074;SDS011;3578;51.568;6.932;2022-11-15T11:54:05;2.13;;;1.60;;
7074;SDS011;3578;51.568;6.932;2022-11-15T11:56:39;1.20;;;1.20;;
7074;SDS011;3578;51.568;6.932;2022-11-15T11:59:10;1.57;;;1.47;;
7074;SDS011;3578;51.568;6.932;2022-11-15T12:01:47;1.40;;;1.30;;
7074;SDS011;3578;51.568;6.932;2022-11-15T12:04:16;1.60;;;1.33;;
7074;SDS011;3578;51.568;6.932;2022-11-15T12:06:49;1.50;;;1.40;;
7074;SDS011;3578;51.568;6.932;2022-11-15T12:09:20;3.27;;;1.73;;
7074;SDS011;3578;51.568;6.932;2022-11-15T12:11:58;1.10;;;1.10;;
7074;SDS011;3578;51.568;6.932;2022-11-15T12:14:34;1.47;;;1.30;;
7074;SDS011;3578;51.568;6.932;2022-11-15T12:17:07;1.33;;;1.10;;
7074;SDS011;3578;51.568;6.932;2022-11-15T12:19:37;4.27;;;1.23;;
7074;SDS011;3578;51.568;6.932;2022-11-15T12:22:05;1.70;;;1.50;;
7074;SDS011;3578;51.568;6.932;2022-11-15T12:24:40;7.47;;;1.47;;
7074;SDS011;3578;51.568;6.932;2022-11-15T12:27:14;3.80;;;1.23;;
7074;SDS011;3578;51.568;6.932;2022-11-15T12:29:46;2.20;;;1.40;;
7074;SDS011;3578;51.568;6.932;2022-11-15T12:32:23;2.13;;;1.30;;
7074;SDS011;3578;51.568;6.932;2022-11-15T12:34:55;2.33;;;1.30;;
7074;SDS011;3578;51.568;6.932;2022-11-15T12:37:46;1.73;;;0.97;;
7074;SDS011;3578;51.568;6.932;2022-11-15T12:40:20;2.13;;;1.40;;
7074;SDS011;3578;51.568;6.932;2022-11-15T12:42:57;1.60;;;1.40;;
7074;SDS011;3578;51.568;6.932;2022-11-15T12:45:31;1.70;;;1.10;;
7074;SDS011;3578;51.568;6.932;2022-11-15T12:51:20;2.63;;;1.60;;
7074;SDS011;3578;51.568;6.932;2022-11-15T12:57:34;7.60;;;1.70;;
7074;SDS011;3578;51.568;6.932;2022-11-15T13:00:36;8.60;;;1.97;;
7074;SDS011;3578;51.568;6.932;2022-11-15T13:03:17;1.53;;;1.43;;
7074;SDS011;3578;51.568;6.932;2022-11-15T13:06:03;6.80;;;1.23;;
7074;SDS011;3578;51.568;6.932;2022-11-15T13:08:46;2.50;;;1.17;;
7074;SDS011;3578;51.568;6.932;2022-11-15T13:17:23;4.23;;;1.60;;
7074;SDS011;3578;51.568;6.932;2022-11-15T13:20:19;1.90;;;1.60;;
7074;SDS011;3578;51.568;6.932;2022-11-15T13:22:52;1.70;;;1.60;;
7074;SDS011;3578;51.568;6.932;2022-11-15T13:25:40;1.60;;;1.43;;
7074;SDS011;3578;51.568;6.932;2022-11-15T13:28:39;1.90;;;1.30;;
7074;SDS011;3578;51.568;6.932;2022-11-15T13:31:18;2.37;;;1.20;;
7074;SDS011;3578;51.568;6.932;2022-11-15T13:33:55;2.17;;;1.53;;
7074;SDS011;3578;51.568;6.932;2022-11-15T13:36:27;2.10;;;1.60;;
7074;SDS011;3578;51.568;6.932;2022-11-15T13:38:58;4.40;;;1.83;;
7074;SDS011;3578;51.568;6.932;2022-11-15T13:41:30;2.47;;;1.33;;
7074;SDS011;3578;51.568;6.932;2022-11-15T13:44:00;2.83;;;1.20;;
7074;SDS011;3578;51.568;6.932;2022-11-15T13:46:29;2.40;;;1.33;;
7074;SDS011;3578;51.568;6.932;2022-11-15T13:48:59;2.30;;;1.30;;
7074;SDS011;3578;51.568;6.932;2022-11-15T13:51:33;1.80;;;1.10;;
7074;SDS011;3578;51.568;6.932;2022-11-15T13:54:08;1.27;;;1.10;;
7074;SDS011;3578;51.568;6.932;2022-11-15T13:56:45;2.63;;;1.60;;
7074;SDS011;3578;51.568;6.932;2022-11-15T13:59:18;1.87;;;1.47;;
7074;SDS011;3578;51.568;6.932;2022-11-15T14:01:50;2.63;;;1.13;;
7074;SDS011;3578;51.568;6.932;2022-11-15T14:04:19;3.43;;;1.27;;
7074;SDS011;3578;51.568;6.932;2022-11-15T14:06:50;4.03;;;1.40;;
7074;SDS011;3578;51.568;6.932;2022-11-15T14:12:23;3.60;;;1.20;;
7074;SDS011;3578;51.568;6.932;2022-11-15T14:14:55;2.30;;;1.50;;
7074;SDS011;3578;51.568;6.932;2022-11-15T14:17:33;4.13;;;1.60;;
7074;SDS011;3578;51.568;6.932;2022-11-15T14:20:19;3.43;;;1.60;;
7074;SDS011;3578;51.568;6.932;2022-11-15T14:22:59;5.90;;;1.60;;
7074;SDS011;3578;51.568;6.932;2022-11-15T14:25:28;3.40;;;2.17;;
7074;SDS011;3578;51.568;6.932;2022-11-15T14:28:12;6.30;;;2.43;;
7074;SDS011;3578;51.568;6.932;2022-11-15T14:30:58;1.20;;;1.20;;
7074;SDS011;3578;51.568;6.932;2022-11-15T14:33:27;1.57;;;1.43;;
7074;SDS011;3578;51.568;6.932;2022-11-15T14:35:57;3.50;;;1.53;;
7074;SDS011;3578;51.568;6.932;2022-11-15T14:38:29;6.10;;;1.43;;
7074;SDS011;3578;51.568;6.932;2022-11-15T14:40:56;6.10;;;1.30;;
7074;SDS011;3578;51.568;6.932;2022-11-15T14:43:24;1.77;;;1.40;;
7074;SDS011;3578;51.568;6.932;2022-11-15T14:45:51;1.93;;;1.77;;
7074;SDS011;3578;51.568;6.932;2022-11-15T14:48:18;2.30;;;1.83;;
7074;SDS011;3578;51.568;6.932;2022-11-15T14:50:45;2.37;;;2.13;;
7074;SDS011;3578;51.568;6.932;2022-11-15T14:53:12;1.90;;;1.80;;
7074;SDS011;3578;51.568;6.932;2022-11-15T14:55:43;2.83;;;1.40;;
7074;SDS011;3578;51.568;6.932;2022-11-15T14:58:10;2.03;;;1.80;;
7074;SDS011;3578;51.568;6.932;2022-11-15T15:00:39;3.07;;;1.60;;
7074;SDS011;3578;51.568;6.932;2022-11-15T15:03:07;1.53;;;1.43;;
7074;SDS011;3578;51.568;6.932;2022-11-15T15:05:35;5.07;;;1.40;;
7074;SDS011;3578;51.568;6.932;2022-11-15T15:08:05;5.27;;;1.53;;
7074;SDS011;3578;51.568;6.932;2022-11-15T15:10:33;4.50;;;1.83;;
7074;SDS011;3578;51.568;6.932;2022-11-15T15:13:02;3.20;;;1.80;;
7074;SDS011;3578;51.568;6.932;2022-11-15T15:15:33;2.20;;;1.87;;
7074;SDS011;3578;51.568;6.932;2022-11-15T15:18:03;2.70;;;1.60;;
7074;SDS011;3578;51.568;6.932;2022-11-15T15:20:33;2.40;;;1.80;;
7074;SDS011;3578;51.568;6.932;2022-11-15T15:23:01;4.60;;;2.20;;
7074;SDS011;3578;51.568;6.932;2022-11-15T15:25:29;2.10;;;2.00;;
7074;SDS011;3578;51.568;6.932;2022-11-15T15:27:58;2.93;;;2.33;;
7074;SDS011;3578;51.568;6.932;2022-11-15T15:30:27;2.70;;;2.37;;
7074;SDS011;3578;51.568;6.932;2022-11-15T15:32:56;3.00;;;2.27;;
7074;SDS011;3578;51.568;6.932;2022-11-15T15:35:24;6.33;;;2.50;;
7074;SDS011;3578;51.568;6.932;2022-11-15T15:37:58;2.93;;;2.30;;
7074;SDS011;3578;51.568;6.932;2022-11-15T15:40:26;5.43;;;2.47;;
7074;SDS011;3578;51.568;6.932;2022-11-15T15:42:55;2.50;;;2.30;;
7074;SDS011;3578;51.568;6.932;2022-11-15T15:45:24;2.60;;;2.10;;
7074;SDS011;3578;51.568;6.932;2022-11-15T15:47:53;3.53;;;1.83;;
7074;SDS011;3578;51.568;6.932;2022-11-15T15:50:22;3.20;;;2.50;;
7074;SDS011;3578;51.568;6.932;2022-11-15T15:52:53;2.10;;;2.00;;
7074;SDS011;3578;51.568;6.932;2022-11-15T15:55:22;4.47;;;2.30;;
7074;SDS011;3578;51.568;6.932;2022-11-15T15:57:49;2.10;;;2.00;;
7074;SDS011;3578;51.568;6.932;2022-11-15T16:00:17;3.10;;;2.20;;
7074;SDS011;3578;51.568;6.932;2022-11-15T16:02:45;3.03;;;2.37;;
7074;SDS011;3578;51.568;6.932;2022-11-15T16:05:12;2.40;;;2.30;;